createdAt,value
2022-12-22T00:02:31.600Z,6
2022-12-22T00:07:37.675Z,5.9
2022-12-22T00:12:43.798Z,6
2022-12-22T00:17:49.881Z,6.2
2022-12-22T00:22:55.986Z,6.4
2022-12-22T00:28:02.076Z,6.3
2022-12-22T00:33:08.187Z,6.4
2022-12-22T00:38:14.279Z,6.5
2022-12-22T00:43:20.370Z,6.5
2022-12-22T00:48:26.463Z,6.4
2022-12-22T00:53:31.586Z,6.4
2022-12-22T00:58:37.671Z,6.5
2022-12-22T01:03:43.782Z,6.5
2022-12-22T01:08:49.873Z,6.5
2022-12-22T01:13:55.956Z,6.5
2022-12-22T01:19:02.120Z,6.5
2022-12-22T01:24:08.155Z,6.4
2022-12-22T01:29:14.245Z,6.4
2022-12-22T01:34:20.416Z,6.4
2022-12-22T01:39:26.463Z,6.5
2022-12-22T01:44:32.550Z,6.5
2022-12-22T01:49:38.644Z,6.5
2022-12-22T01:54:44.817Z,6.6
2022-12-22T01:59:49.877Z,6.6
2022-12-22T02:04:55.957Z,6.8
2022-12-22T02:10:02.043Z,6.9
2022-12-22T02:15:08.146Z,7
2022-12-22T02:25:20.337Z,7.2
2022-12-22T02:30:26.443Z,7.1
2022-12-22T02:35:32.521Z,7.2
2022-12-22T02:40:38.621Z,7.4
2022-12-22T02:45:44.735Z,7.5
2022-12-22T02:50:50.832Z,7.4
2022-12-22T02:55:56.911Z,7.4
2022-12-22T03:01:03.020Z,7.3
2022-12-22T03:06:08.111Z,7.6
2022-12-22T03:11:14.212Z,7.9
2022-12-22T03:16:20.312Z,8.4
2022-12-22T03:21:26.397Z,8.7
2022-12-22T03:26:32.510Z,8.9
2022-12-22T03:31:38.592Z,9.1
2022-12-22T03:36:44.712Z,9.2
2022-12-22T03:41:50.789Z,9.2
2022-12-22T03:46:56.889Z,9.1
2022-12-22T03:52:02.978Z,9.3
2022-12-22T03:57:09.074Z,9.2
2022-12-22T04:02:15.176Z,9.2
2022-12-22T04:07:20.294Z,9.2
2022-12-22T04:12:26.386Z,9.3
2022-12-22T04:17:32.489Z,9.3
2022-12-22T04:22:38.654Z,9.4
2022-12-22T04:27:44.719Z,9.5
2022-12-22T04:32:50.777Z,9.5
2022-12-22T04:37:56.865Z,9.4
2022-12-22T04:43:02.979Z,9.3
2022-12-22T04:48:09.056Z,9.4
2022-12-22T04:53:15.146Z,9.5
2022-12-22T04:58:21.252Z,9.4
2022-12-22T05:03:27.341Z,9.4
2022-12-22T05:08:33.433Z,9.5
2022-12-22T05:13:38.551Z,9.5
2022-12-22T05:18:44.671Z,9.6
2022-12-22T05:23:50.755Z,9.5
2022-12-22T05:28:56.828Z,9.4
2022-12-22T05:34:02.929Z,9.4
2022-12-22T05:39:09.023Z,9.3
2022-12-22T05:44:15.137Z,9.2
2022-12-22T05:49:21.217Z,9.2
2022-12-22T05:54:27.308Z,9.1
2022-12-22T05:59:33.410Z,9
2022-12-22T06:04:39.503Z,9.1
2022-12-22T06:09:45.660Z,9.1
2022-12-22T06:14:51.695Z,9.1
2022-12-22T06:19:56.803Z,9.1
2022-12-22T06:25:02.902Z,9
2022-12-22T06:30:09.073Z,9
2022-12-22T06:35:15.119Z,8.9
2022-12-22T06:40:21.188Z,8.8
2022-12-22T06:45:27.432Z,9
2022-12-22T06:50:33.385Z,9.1
2022-12-22T06:55:39.493Z,9.3
2022-12-22T07:00:45.569Z,9.3
2022-12-22T07:05:51.800Z,9.4
2022-12-22T07:10:57.841Z,9.5
2022-12-22T07:16:03.887Z,9.5
2022-12-22T07:21:10.029Z,9.6
2022-12-22T07:26:15.156Z,9.6
2022-12-22T07:31:21.225Z,9.6
2022-12-22T07:36:27.258Z,9.6
2022-12-22T07:41:33.369Z,9.5
2022-12-22T07:46:39.446Z,9.7
2022-12-22T07:51:45.610Z,9.6
2022-12-22T07:56:51.653Z,9.5
2022-12-22T08:01:57.779Z,9.4
2022-12-22T08:07:03.998Z,9.3
2022-12-22T08:12:10.072Z,9.3
2022-12-22T08:17:16.064Z,9.3
2022-12-22T08:22:22.131Z,9.3
2022-12-22T08:27:28.293Z,9.4
2022-12-22T08:32:33.404Z,9.4
2022-12-22T08:37:39.440Z,9.4
2022-12-22T08:42:45.602Z,9.4
2022-12-22T08:47:51.653Z,9.4
2022-12-22T08:52:57.698Z,9.3
2022-12-22T08:58:03.811Z,9.3
2022-12-22T09:03:09.885Z,9.3
2022-12-22T09:08:16.045Z,9.3
2022-12-22T09:13:22.088Z,9.3
2022-12-22T09:18:28.228Z,9.2
2022-12-22T09:23:34.289Z,9.3
2022-12-22T09:28:40.382Z,9.4
2022-12-22T09:33:46.563Z,9.5
2022-12-22T09:38:52.674Z,9.5
2022-12-22T09:43:57.676Z,9.5
2022-12-22T09:49:03.787Z,9.6
2022-12-22T09:54:09.885Z,9.6
2022-12-22T09:59:16.105Z,9.7
2022-12-22T10:04:22.089Z,9.7
2022-12-22T10:09:28.151Z,9.6
2022-12-22T10:14:34.250Z,9.6
2022-12-22T10:19:40.378Z,9.7
2022-12-22T10:24:46.429Z,10
2022-12-22T10:29:52.532Z,10.2
2022-12-22T10:34:58.633Z,10.5
2022-12-22T10:40:04.864Z,10.5
2022-12-22T10:45:10.833Z,10.5
2022-12-22T10:50:15.927Z,10.5
2022-12-22T10:55:22.029Z,10.5
2022-12-22T11:05:34.217Z,10.5
2022-12-22T11:10:40.306Z,10.6
2022-12-22T11:15:46.426Z,10.7
2022-12-22T11:20:52.512Z,10.8
2022-12-22T11:25:58.607Z,10.9
2022-12-22T11:31:04.700Z,11.1
2022-12-22T11:36:10.790Z,11.5
2022-12-22T11:41:16.878Z,11.6
2022-12-22T11:46:22.971Z,11.6
2022-12-22T11:51:29.083Z,11.6
2022-12-22T11:56:34.263Z,11.7
2022-12-22T12:01:40.293Z,11.6
2022-12-22T12:06:46.389Z,11.5
2022-12-22T12:11:52.477Z,11.5
2022-12-22T12:16:58.577Z,11.3
2022-12-22T12:22:04.684Z,11.2
2022-12-22T12:27:10.741Z,11.2
2022-12-22T12:32:16.865Z,11.1
2022-12-22T12:37:22.957Z,11.1
2022-12-22T12:42:29.060Z,11.1
2022-12-22T12:47:35.140Z,11.1
2022-12-22T12:52:41.238Z,11
2022-12-22T12:57:47.332Z,11
2022-12-22T13:02:52.439Z,11
2022-12-22T13:07:58.539Z,11
2022-12-22T13:13:04.627Z,10.9
2022-12-22T13:18:10.732Z,10.8
2022-12-22T13:23:16.820Z,10.7
2022-12-22T13:28:22.978Z,10.6
2022-12-22T13:38:35.109Z,10.4
2022-12-22T13:43:41.337Z,10.3
2022-12-22T13:48:47.317Z,10.3
2022-12-22T13:53:53.448Z,10.3
2022-12-22T13:58:59.720Z,10.2
2022-12-22T14:04:05.709Z,10.2
2022-12-22T14:09:10.784Z,10.1
2022-12-22T14:14:16.802Z,10.1
2022-12-22T14:19:22.884Z,10.1
2022-12-22T14:24:29.049Z,10.1
2022-12-22T14:29:35.077Z,10.1
2022-12-22T14:34:41.272Z,10.1
2022-12-22T14:39:47.286Z,10
2022-12-22T14:44:53.354Z,10.1
2022-12-22T14:49:59.470Z,10
2022-12-22T14:55:05.553Z,10
2022-12-22T15:00:11.661Z,10
2022-12-22T15:05:17.754Z,10
2022-12-22T15:10:23.899Z,9.9
2022-12-22T15:15:29.057Z,9.9
2022-12-22T15:20:35.052Z,9.8
2022-12-22T15:25:41.152Z,9.7
2022-12-22T15:30:47.249Z,9.6
2022-12-22T15:35:53.384Z,9.3
2022-12-22T15:41:05.430Z,9.2
2022-12-22T15:46:05.544Z,9
2022-12-22T15:51:11.617Z,9
2022-12-22T15:56:17.776Z,9
2022-12-22T16:01:23.837Z,8.9
2022-12-22T16:06:29.899Z,8.9
2022-12-22T16:11:36.062Z,8.9
2022-12-22T16:16:42.143Z,8.8
2022-12-22T16:21:47.216Z,8.7
2022-12-22T16:26:53.335Z,8.5
2022-12-22T16:31:59.397Z,8.4
2022-12-22T16:37:05.563Z,8.3
2022-12-22T16:42:11.611Z,8.2
2022-12-22T16:47:17.688Z,8.1
2022-12-22T16:52:23.820Z,8.2
2022-12-22T16:57:29.920Z,8.1
2022-12-22T17:02:35.973Z,8
2022-12-22T17:07:42.079Z,7.9
2022-12-22T17:12:48.221Z,7.9
2022-12-22T17:17:54.287Z,7.9
2022-12-22T17:23:00.363Z,7.9
2022-12-22T17:28:05.468Z,7.8
2022-12-22T17:33:11.575Z,7.8
2022-12-22T17:38:17.809Z,7.7
2022-12-22T17:43:23.776Z,7.7
2022-12-22T17:48:29.925Z,7.6
2022-12-22T17:53:35.969Z,7.7
2022-12-22T17:58:42.057Z,7.8
2022-12-22T18:03:48.133Z,7.7
2022-12-22T18:08:54.351Z,7.7
2022-12-22T18:14:00.338Z,7.7
2022-12-22T18:19:06.469Z,7.8
2022-12-22T18:24:12.543Z,7.8
2022-12-22T18:29:18.662Z,7.9
2022-12-22T18:34:23.755Z,7.9
2022-12-22T18:39:29.847Z,8
2022-12-22T18:44:35.925Z,7.9
2022-12-22T18:49:42.021Z,7.9
2022-12-22T18:54:48.201Z,7.9
2022-12-22T18:59:54.237Z,7.7
2022-12-22T19:05:00.327Z,7.6
2022-12-22T19:10:06.417Z,7.5
2022-12-22T19:15:12.515Z,7.3
2022-12-22T19:20:18.613Z,7.3
2022-12-22T19:25:24.703Z,7.4
2022-12-22T19:30:30.797Z,7.3
2022-12-22T19:35:36.925Z,7.3
2022-12-22T19:40:42.059Z,7.2
2022-12-22T19:45:48.113Z,6.9
2022-12-22T19:50:54.198Z,6.9
2022-12-22T19:56:00.292Z,7
2022-12-22T20:01:06.391Z,7
2022-12-22T20:06:12.523Z,6.7
2022-12-22T20:11:18.594Z,6.6
2022-12-22T20:16:24.684Z,6.4
2022-12-22T20:21:30.784Z,6.4
2022-12-22T20:26:36.866Z,6.7
2022-12-22T20:31:42.961Z,6.7
2022-12-22T20:36:49.107Z,6.8
2022-12-22T20:41:55.231Z,6.8
2022-12-22T20:47:00.334Z,6.7
2022-12-22T20:52:06.371Z,6.7
2022-12-22T20:57:12.459Z,6.9
2022-12-22T21:02:18.559Z,7
2022-12-22T21:07:24.707Z,6.9
2022-12-22T21:12:29.797Z,7
2022-12-22T21:17:35.901Z,7
2022-12-22T21:22:41.981Z,7
2022-12-22T21:27:48.063Z,7
2022-12-22T21:32:54.170Z,7
2022-12-22T21:38:00.266Z,7.1
2022-12-22T21:43:06.362Z,7
2022-12-22T21:48:12.475Z,6.9
2022-12-22T21:53:18.603Z,6.9
2022-12-22T21:58:24.658Z,6.9
2022-12-22T22:03:30.735Z,7
2022-12-22T22:08:36.826Z,7.1
2022-12-22T22:13:42.931Z,7.1
2022-12-22T22:18:48.054Z,7.2
2022-12-22T22:23:54.135Z,7.2
2022-12-22T22:29:00.241Z,7.3
2022-12-22T22:34:06.333Z,7.3
2022-12-22T22:39:12.477Z,7.3
2022-12-22T22:44:18.563Z,7.4
2022-12-22T22:49:24.625Z,7.4
2022-12-22T22:54:30.729Z,7.4
2022-12-22T22:59:36.828Z,7.4
2022-12-22T23:04:42.906Z,7.4
2022-12-22T23:09:49.010Z,7.5
2022-12-22T23:14:55.143Z,7.6
2022-12-22T23:20:01.210Z,7.6
2022-12-22T23:25:06.351Z,7.5
2022-12-22T23:30:12.429Z,7.6
2022-12-22T23:35:18.511Z,7.7
2022-12-22T23:40:24.591Z,7.7
2022-12-22T23:45:30.720Z,7.8
2022-12-22T23:50:36.782Z,7.7
2022-12-22T23:55:42.924Z,7.7
